createdAt,value
2019-05-14T00:00:43.759Z,19.80
2019-05-14T00:03:16.793Z,19.80
2019-05-14T00:05:51.476Z,19.70
2019-05-14T00:08:23.683Z,19.70
2019-05-14T00:10:56.795Z,19.60
2019-05-14T00:13:31.898Z,19.50
2019-05-14T00:16:03.981Z,19.40
2019-05-14T00:18:36.983Z,19.40
2019-05-14T00:21:09.566Z,19.40
2019-05-14T00:23:43.752Z,19.50
2019-05-14T00:26:16.463Z,19.50
2019-05-14T00:28:51.068Z,19.40
2019-05-14T00:31:27.169Z,19.30
2019-05-14T00:34:01.617Z,19.10
2019-05-14T00:36:33.711Z,19.10
2019-05-14T00:39:07.696Z,19.20
2019-05-14T00:41:42.123Z,19.30
2019-05-14T00:44:14.840Z,19.40
2019-05-14T00:46:47.680Z,19.40
2019-05-14T00:49:21.217Z,19.50
2019-05-14T00:51:54.064Z,19.60
2019-05-14T00:54:26.839Z,19.60
2019-05-14T00:57:01.371Z,19.70
2019-05-14T00:59:33.442Z,19.80
2019-05-14T01:02:06.253Z,19.80
2019-05-14T01:04:39.407Z,19.80
2019-05-14T01:07:12.341Z,19.80
2019-05-14T01:09:45.092Z,19.70
2019-05-14T01:12:21.251Z,19.50
2019-05-14T01:15:06.693Z,19.40
2019-05-14T01:17:26.784Z,19.20
2019-05-14T01:19:59.364Z,19.20
2019-05-14T01:22:32.231Z,19.40
2019-05-14T01:25:04.746Z,19.60
2019-05-14T01:27:37.325Z,19.70
2019-05-14T01:30:12.508Z,19.80
2019-05-14T01:32:45.245Z,19.80
2019-05-14T01:35:17.954Z,19.90
2019-05-14T01:37:52.254Z,20.00
2019-05-14T01:40:24.472Z,20.10
2019-05-14T01:42:57.068Z,20.20
2019-05-14T01:45:31.566Z,20.10
2019-05-14T01:48:03.934Z,19.90
2019-05-14T01:50:36.446Z,19.70
2019-05-14T01:53:11.163Z,19.70
2019-05-14T01:55:43.098Z,19.60
2019-05-14T01:58:16.010Z,19.40
2019-05-14T02:00:48.917Z,19.10
2019-05-14T02:03:22.128Z,18.90
2019-05-14T02:05:55.606Z,18.80
2019-05-14T02:08:28.359Z,18.70
2019-05-14T02:11:01.644Z,18.60
2019-05-14T02:13:34.901Z,18.60
2019-05-14T02:16:07.643Z,18.60
2019-05-14T02:18:41.610Z,18.70
2019-05-14T02:21:14.325Z,18.70
2019-05-14T02:23:47.181Z,18.70
2019-05-14T02:26:21.912Z,18.80
2019-05-14T02:28:53.681Z,18.80
2019-05-14T02:31:29.244Z,18.90
2019-05-14T02:34:01.837Z,18.90
2019-05-14T02:36:34.821Z,19.00
2019-05-14T02:39:10.182Z,19.10
2019-05-14T02:41:42.664Z,19.10
2019-05-14T02:44:18.892Z,19.10
2019-05-14T02:46:51.169Z,19.10
2019-05-14T02:49:23.732Z,19.10
2019-05-14T02:51:58.987Z,19.00
2019-05-14T02:54:31.008Z,18.90
2019-05-14T02:57:04.036Z,18.80
2019-05-14T02:59:39.127Z,18.80
2019-05-14T03:02:10.938Z,18.70
2019-05-14T03:04:43.539Z,18.60
2019-05-14T03:07:19.489Z,18.50
2019-05-14T03:09:52.743Z,18.50
2019-05-14T03:12:29.948Z,18.40
2019-05-14T03:15:02.367Z,18.40
2019-05-14T03:17:35.359Z,18.30
2019-05-14T03:20:12.170Z,18.30
2019-05-14T03:23:01.460Z,18.20
2019-05-14T03:25:20.733Z,18.20
2019-05-14T03:27:53.610Z,18.10
2019-05-14T03:30:31.657Z,18.00
2019-05-14T03:33:02.983Z,17.90
2019-05-14T03:35:44.456Z,17.80
2019-05-14T03:38:12.761Z,17.70
2019-05-14T03:40:49.716Z,17.60
2019-05-14T03:43:20.804Z,17.50
2019-05-14T03:45:53.741Z,17.40
2019-05-14T03:48:30.395Z,17.20
2019-05-14T03:51:08.857Z,17.00
2019-05-14T03:53:55.035Z,16.90
2019-05-14T03:56:12.628Z,16.80
2019-05-14T03:58:56.214Z,16.70
2019-05-14T04:01:31.551Z,16.60
2019-05-14T04:04:04.390Z,16.50
2019-05-14T04:06:40.105Z,16.40
2019-05-14T04:09:11.487Z,16.40
2019-05-14T04:11:45.046Z,16.30
2019-05-14T04:14:20.271Z,16.30
2019-05-14T04:17:05.169Z,16.30
2019-05-14T04:19:32.016Z,16.30
2019-05-14T04:22:10.158Z,16.30
2019-05-14T04:24:44.266Z,16.30
2019-05-14T04:27:20.258Z,16.30
2019-05-14T04:29:54.458Z,16.30
2019-05-14T04:32:29.149Z,16.30
2019-05-14T04:35:02.091Z,16.30
2019-05-14T04:40:29.971Z,16.30
2019-05-14T04:43:03.487Z,16.30
2019-05-14T04:45:39.308Z,16.20
2019-05-14T04:48:28.118Z,16.20
2019-05-14T04:50:49.477Z,16.20
2019-05-14T04:53:20.534Z,16.10
2019-05-14T04:56:09.594Z,16.10
2019-05-14T04:58:35.460Z,16.00
2019-05-14T05:01:09.787Z,16.00
2019-05-14T05:03:42.686Z,15.90
2019-05-14T05:06:18.989Z,15.90
2019-05-14T05:08:50.585Z,15.80
2019-05-14T05:11:23.793Z,15.70
2019-05-14T05:13:59.269Z,15.60
2019-05-14T05:16:31.901Z,15.50
2019-05-14T05:19:04.825Z,15.30
2019-05-14T05:21:40.826Z,15.20
2019-05-14T05:24:15.577Z,15.10
2019-05-14T05:26:48.677Z,15.00
2019-05-14T05:29:21.492Z,14.90
2019-05-14T05:31:53.985Z,14.80
2019-05-14T05:34:29.424Z,14.60
2019-05-14T05:37:02.104Z,14.50
2019-05-14T05:39:35.098Z,14.40
2019-05-14T05:42:09.152Z,14.30
2019-05-14T05:44:42.493Z,14.20
2019-05-14T05:47:24.420Z,14.00
2019-05-14T05:49:58.232Z,13.90
2019-05-14T05:52:31.570Z,13.80
2019-05-14T05:55:04.805Z,13.70
2019-05-14T05:57:39.281Z,13.60
2019-05-14T06:00:13.554Z,13.50
2019-05-14T06:02:48.760Z,13.50
2019-05-14T06:05:21.286Z,13.40
2019-05-14T06:07:54.326Z,13.30
2019-05-14T06:10:29.142Z,13.30
2019-05-14T06:13:01.155Z,13.20
2019-05-14T06:15:47.491Z,13.20
2019-05-14T06:18:17.826Z,13.20
2019-05-14T06:20:43.979Z,13.20
2019-05-14T06:23:18.921Z,13.10
2019-05-14T06:25:51.325Z,13.10
2019-05-14T06:28:24.104Z,13.00
2019-05-14T06:30:58.733Z,13.00
2019-05-14T06:33:31.749Z,12.90
2019-05-14T06:36:04.480Z,12.80
2019-05-14T06:38:38.879Z,12.80
2019-05-14T06:41:11.167Z,12.80
2019-05-14T06:43:44.199Z,12.70
2019-05-14T06:46:19.388Z,12.70
2019-05-14T06:48:50.952Z,12.60
2019-05-14T06:51:23.813Z,12.60
2019-05-14T06:53:58.613Z,12.60
2019-05-14T06:56:31.045Z,12.60
2019-05-14T06:59:03.509Z,12.70
2019-05-14T07:01:38.368Z,12.70
2019-05-14T07:04:10.298Z,12.70
2019-05-14T07:06:43.892Z,12.80
2019-05-14T07:09:18.413Z,12.80
2019-05-14T07:11:51.003Z,12.90
2019-05-14T07:14:24.928Z,13.00
2019-05-14T07:16:58.794Z,13.10
2019-05-14T07:19:32.864Z,13.10
2019-05-14T07:22:05.513Z,13.20
2019-05-14T07:24:40.547Z,13.30
2019-05-14T07:27:12.661Z,13.30
2019-05-14T07:29:45.950Z,13.40
2019-05-14T07:32:19.128Z,13.50
2019-05-14T07:34:52.108Z,13.50
2019-05-14T07:37:24.531Z,13.60
2019-05-14T07:39:58.000Z,13.60
2019-05-14T07:42:30.624Z,13.70
2019-05-14T07:45:03.202Z,13.70
2019-05-14T07:47:38.559Z,13.80
2019-05-14T07:50:11.221Z,13.80
2019-05-14T07:52:49.542Z,13.90
2019-05-14T07:55:19.145Z,13.90
2019-05-14T07:57:51.824Z,13.90
2019-05-14T08:00:28.385Z,14.00
2019-05-14T08:02:59.965Z,14.00
2019-05-14T08:05:33.204Z,14.00
2019-05-14T08:08:07.932Z,14.00
2019-05-14T08:10:39.931Z,14.10
2019-05-14T08:13:12.435Z,14.10
2019-05-14T08:15:45.024Z,14.10
2019-05-14T08:18:18.908Z,14.10
2019-05-14T08:20:52.563Z,14.10
2019-05-14T08:23:27.782Z,14.10
2019-05-14T08:26:03.801Z,14.20
2019-05-14T08:28:33.796Z,14.20
2019-05-14T08:31:09.136Z,14.20
2019-05-14T08:33:40.561Z,14.20
2019-05-14T08:36:13.187Z,14.20
2019-05-14T08:38:47.385Z,14.20
2019-05-14T08:41:20.042Z,14.20
2019-05-14T08:43:53.329Z,14.20
2019-05-14T08:46:28.190Z,14.30
2019-05-14T08:48:59.787Z,14.30
2019-05-14T08:51:32.447Z,14.20
2019-05-14T08:54:05.284Z,14.20
2019-05-14T08:56:38.911Z,14.20
2019-05-14T08:59:11.960Z,14.20
2019-05-14T09:01:58.551Z,14.20
2019-05-14T09:04:22.405Z,14.20
2019-05-14T09:06:53.069Z,14.20
2019-05-14T09:09:25.918Z,14.10
2019-05-14T09:11:59.967Z,14.00
2019-05-14T09:14:32.415Z,13.80
2019-05-14T09:17:05.506Z,13.70
2019-05-14T09:19:39.486Z,13.60
2019-05-14T09:22:12.580Z,13.60
2019-05-14T09:24:45.338Z,13.50
2019-05-14T09:27:19.266Z,13.50
2019-05-14T09:29:52.026Z,13.60
2019-05-14T09:32:24.848Z,13.60
2019-05-14T09:34:58.984Z,13.60
2019-05-14T09:37:33.030Z,13.70
2019-05-14T09:40:05.986Z,13.70
2019-05-14T09:42:39.289Z,13.70
2019-05-14T09:45:12.832Z,13.70
2019-05-14T09:47:50.308Z,13.70
2019-05-14T09:50:23.445Z,13.70
2019-05-14T09:52:54.110Z,13.70
2019-05-14T09:55:28.198Z,13.80
2019-05-14T09:58:00.606Z,13.80
2019-05-14T10:00:33.599Z,13.90
2019-05-14T10:03:09.357Z,13.90
2019-05-14T10:05:40.380Z,13.90
2019-05-14T10:08:12.786Z,14.00
2019-05-14T10:10:45.472Z,14.00
2019-05-14T10:13:18.358Z,14.00
2019-05-14T10:15:50.890Z,14.10
2019-05-14T10:18:23.974Z,14.10
2019-05-14T10:20:58.998Z,14.10
2019-05-14T10:23:31.185Z,14.10
2019-05-14T10:26:04.007Z,14.20
2019-05-14T10:28:39.201Z,14.20
2019-05-14T10:31:13.189Z,14.20
2019-05-14T10:33:44.324Z,14.20
2019-05-14T10:36:19.099Z,14.10
2019-05-14T10:38:51.822Z,14.00
2019-05-14T10:41:24.512Z,13.90
2019-05-14T10:43:58.902Z,13.80
2019-05-14T10:46:31.629Z,13.60
2019-05-14T10:49:16.357Z,13.50
2019-05-14T10:51:39.819Z,13.30
2019-05-14T10:54:22.477Z,13.20
2019-05-14T10:56:49.294Z,13.00
2019-05-14T10:59:20.829Z,12.90
2019-05-14T11:01:53.481Z,12.90
2019-05-14T11:04:28.437Z,12.80
2019-05-14T11:07:03.227Z,12.80
2019-05-14T11:09:37.895Z,12.80
2019-05-14T11:12:10.049Z,12.80
2019-05-14T11:14:42.629Z,12.70
2019-05-14T11:17:15.411Z,12.70
2019-05-14T11:19:47.985Z,12.70
2019-05-14T11:22:21.015Z,12.70
2019-05-14T11:24:53.751Z,12.70
2019-05-14T11:27:29.064Z,12.80
2019-05-14T11:30:00.722Z,12.80
2019-05-14T11:32:33.488Z,12.80
2019-05-14T11:35:12.597Z,12.90
2019-05-14T11:37:41.380Z,12.90
2019-05-14T11:40:14.349Z,13.00
2019-05-14T11:42:49.484Z,13.10
2019-05-14T11:45:21.495Z,13.10
2019-05-14T11:47:54.273Z,13.20
2019-05-14T11:50:28.767Z,13.20
2019-05-14T11:53:01.126Z,13.30
2019-05-14T11:55:33.907Z,13.30
2019-05-14T11:58:08.588Z,13.40
2019-05-14T12:00:40.891Z,13.50
2019-05-14T12:03:13.915Z,13.50
2019-05-14T12:05:49.150Z,13.60
2019-05-14T12:08:20.607Z,13.60
2019-05-14T12:10:53.248Z,13.60
2019-05-14T12:13:29.852Z,13.60
2019-05-14T12:16:00.067Z,13.60
2019-05-14T12:18:32.822Z,13.60
2019-05-14T12:21:08.761Z,13.50
2019-05-14T12:23:40.439Z,13.50
2019-05-14T12:26:12.994Z,13.40
2019-05-14T12:28:45.683Z,13.30
2019-05-14T12:31:18.525Z,13.30
2019-05-14T12:33:51.295Z,13.30
2019-05-14T12:36:25.509Z,13.30
2019-05-14T12:38:59.191Z,13.30
2019-05-14T12:41:32.456Z,13.30
2019-05-14T12:44:09.048Z,13.40
2019-05-14T12:46:40.209Z,13.30
2019-05-14T12:49:13.174Z,13.30
2019-05-14T12:51:46.056Z,13.20
2019-05-14T12:54:19.929Z,13.20
2019-05-14T12:56:53.029Z,13.20
2019-05-14T12:59:25.827Z,13.10
2019-05-14T13:01:58.849Z,13.00
2019-05-14T13:04:31.857Z,13.00
2019-05-14T13:07:04.797Z,13.00
2019-05-14T13:09:38.588Z,12.90
2019-05-14T13:12:11.870Z,12.80
2019-05-14T13:14:44.893Z,12.80
2019-05-14T13:17:18.710Z,12.70
2019-05-14T13:19:52.041Z,12.60
2019-05-14T13:22:41.592Z,12.50
2019-05-14T13:25:00.992Z,12.40
2019-05-14T13:27:33.980Z,12.30
2019-05-14T13:30:09.109Z,12.30
2019-05-14T13:32:42.290Z,12.20
2019-05-14T13:35:15.220Z,12.20
2019-05-14T13:37:49.053Z,12.20
2019-05-14T13:40:22.079Z,12.10
2019-05-14T13:42:55.316Z,12.10
2019-05-14T13:45:30.083Z,12.00
2019-05-14T13:48:02.902Z,12.00
2019-05-14T13:50:36.246Z,12.00
2019-05-14T13:53:12.765Z,12.00
2019-05-14T13:55:47.242Z,12.00
2019-05-14T13:58:20.469Z,12.00
2019-05-14T14:00:52.308Z,11.90
2019-05-14T14:03:25.124Z,11.90
2019-05-14T14:05:59.454Z,11.90
2019-05-14T14:08:32.930Z,11.90
2019-05-14T14:11:12.258Z,12.00
2019-05-14T14:13:58.766Z,12.00
2019-05-14T14:16:31.859Z,12.00
2019-05-14T14:19:04.686Z,12.00
2019-05-14T14:21:39.687Z,12.00
2019-05-14T14:24:11.861Z,12.10
2019-05-14T14:26:44.970Z,12.10
2019-05-14T14:29:18.797Z,12.20
2019-05-14T14:31:51.823Z,12.20
2019-05-14T14:34:24.821Z,12.30
2019-05-14T14:36:59.333Z,12.30
2019-05-14T14:39:32.453Z,12.30
2019-05-14T14:42:05.441Z,12.40
2019-05-14T14:44:39.338Z,12.40
2019-05-14T14:47:12.447Z,12.50
2019-05-14T14:49:45.641Z,12.50
2019-05-14T14:52:19.938Z,12.50
2019-05-14T14:54:52.780Z,12.60
2019-05-14T14:57:26.129Z,12.60
2019-05-14T15:00:00.138Z,12.70
2019-05-14T15:02:32.979Z,12.70
2019-05-14T15:05:09.921Z,12.70
2019-05-14T15:07:40.977Z,12.80
2019-05-14T15:10:14.345Z,12.80
2019-05-14T15:12:49.645Z,12.80
2019-05-14T15:15:21.408Z,12.80
2019-05-14T15:17:54.783Z,12.80
2019-05-14T15:20:28.992Z,12.90
2019-05-14T15:23:01.943Z,12.90
2019-05-14T15:25:34.918Z,13.00
2019-05-14T15:28:09.383Z,13.00
2019-05-14T15:30:41.992Z,13.10
2019-05-14T15:33:14.769Z,13.10
2019-05-14T15:35:49.039Z,13.20
2019-05-14T15:38:22.004Z,13.30
2019-05-14T15:40:55.353Z,13.30
2019-05-14T15:43:28.564Z,13.30
2019-05-14T15:46:01.828Z,13.40
2019-05-14T15:48:35.026Z,13.40
2019-05-14T15:51:14.371Z,13.50
2019-05-14T15:54:01.713Z,13.50
2019-05-14T15:56:18.557Z,13.50
2019-05-14T15:58:50.343Z,13.50
2019-05-14T16:01:23.325Z,13.60
2019-05-14T16:03:56.113Z,13.60
2019-05-14T16:06:28.910Z,13.60
2019-05-14T16:09:02.123Z,13.60
2019-05-14T16:11:34.899Z,13.60
2019-05-14T16:14:10.137Z,13.60
2019-05-14T16:16:42.261Z,13.60
2019-05-14T16:19:18.858Z,13.60
2019-05-14T16:21:50.711Z,13.70
2019-05-14T16:24:24.250Z,13.70
2019-05-14T16:27:00.192Z,13.70
2019-05-14T16:29:44.138Z,13.70
2019-05-14T16:32:05.525Z,13.70
2019-05-14T16:34:40.964Z,13.80
2019-05-14T16:37:12.690Z,13.80
2019-05-14T16:39:45.627Z,13.80
2019-05-14T16:42:20.599Z,13.70
2019-05-14T16:44:52.964Z,13.70
2019-05-14T16:47:28.021Z,13.60
2019-05-14T16:50:00.101Z,13.60
2019-05-14T16:52:33.068Z,13.50
2019-05-14T16:55:20.631Z,13.50
2019-05-14T16:57:40.279Z,13.50
2019-05-14T17:00:13.584Z,13.40
2019-05-14T17:02:48.278Z,13.40
2019-05-14T17:05:20.569Z,13.30
2019-05-14T17:07:53.476Z,13.30
2019-05-14T17:10:28.591Z,13.30
2019-05-14T17:13:02.022Z,13.20
2019-05-14T17:15:35.255Z,13.20
2019-05-14T17:18:08.846Z,13.20
2019-05-14T17:20:42.089Z,13.10
2019-05-14T17:23:15.405Z,13.00
2019-05-14T17:25:48.573Z,13.00
2019-05-14T17:28:22.039Z,13.00
2019-05-14T17:30:55.657Z,13.10
2019-05-14T17:33:29.200Z,13.10
2019-05-14T17:36:02.885Z,13.10
2019-05-14T17:38:38.871Z,13.20
2019-05-14T17:41:09.878Z,13.20
2019-05-14T17:43:42.900Z,13.20
2019-05-14T17:46:15.611Z,13.20
2019-05-14T17:48:48.845Z,13.20
2019-05-14T17:51:21.765Z,13.20
2019-05-14T17:53:54.785Z,13.20
2019-05-14T17:56:28.375Z,13.20
2019-05-14T17:59:01.476Z,13.20
2019-05-14T18:01:34.362Z,13.20
2019-05-14T18:04:09.046Z,13.20
2019-05-14T18:06:41.361Z,13.20
2019-05-14T18:09:14.467Z,13.20
2019-05-14T18:11:49.066Z,13.30
2019-05-14T18:14:21.543Z,13.40
2019-05-14T18:16:54.341Z,13.50
2019-05-14T18:19:28.983Z,13.60
2019-05-14T18:22:01.215Z,13.60
2019-05-14T18:24:33.862Z,13.70
2019-05-14T18:27:08.215Z,13.70
2019-05-14T18:29:41.717Z,13.80
2019-05-14T18:32:14.462Z,13.80
2019-05-14T18:34:48.638Z,13.90
2019-05-14T18:37:21.815Z,13.90
2019-05-14T18:39:54.948Z,13.90
2019-05-14T18:42:29.768Z,13.80
2019-05-14T18:45:01.894Z,13.80
2019-05-14T18:47:34.845Z,13.80
2019-05-14T18:50:09.329Z,13.80
2019-05-14T18:52:42.339Z,13.80
2019-05-14T18:55:15.752Z,13.90
2019-05-14T18:57:48.735Z,13.90
2019-05-14T19:00:21.875Z,13.90
2019-05-14T19:02:54.927Z,13.90
2019-05-14T19:05:29.518Z,13.90
2019-05-14T19:08:02.227Z,13.90
2019-05-14T19:10:35.047Z,13.90
2019-05-14T19:13:08.854Z,13.90
2019-05-14T19:15:41.884Z,13.90
2019-05-14T19:18:14.765Z,13.90
2019-05-14T19:20:48.697Z,13.90
2019-05-14T19:23:21.412Z,13.80
2019-05-14T19:25:54.235Z,13.80
2019-05-14T19:28:28.222Z,13.80
2019-05-14T19:31:01.233Z,13.70
2019-05-14T19:33:34.531Z,13.70
2019-05-14T19:36:08.803Z,13.70
2019-05-14T19:38:41.337Z,13.70
2019-05-14T19:41:13.957Z,13.70
2019-05-14T19:43:46.968Z,13.70
2019-05-14T19:46:19.989Z,13.70
2019-05-14T19:48:53.053Z,13.70
2019-05-14T19:51:27.773Z,13.80
2019-05-14T19:54:01.088Z,13.90
2019-05-14T19:56:47.117Z,14.00
2019-05-14T19:59:09.104Z,14.10
2019-05-14T20:01:42.011Z,14.10
2019-05-14T20:04:14.711Z,14.20
2019-05-14T20:06:49.142Z,14.40
2019-05-14T20:09:21.197Z,14.60
2019-05-14T20:11:54.148Z,14.70
2019-05-14T20:14:28.696Z,14.90
2019-05-14T20:17:00.810Z,15.00
2019-05-14T20:19:33.532Z,15.20
2019-05-14T20:22:06.313Z,15.30
2019-05-14T20:24:41.526Z,15.40
2019-05-14T20:27:12.857Z,15.40
2019-05-14T20:29:45.796Z,15.60
2019-05-14T20:32:19.422Z,15.90
2019-05-14T20:34:53.358Z,16.10
2019-05-14T20:37:25.715Z,16.40
2019-05-14T20:39:59.112Z,16.40
2019-05-14T20:42:32.048Z,16.40
2019-05-14T20:45:04.785Z,16.50
2019-05-14T20:47:39.131Z,16.60
2019-05-14T20:50:11.584Z,16.60
2019-05-14T20:52:44.283Z,16.60
2019-05-14T20:55:19.068Z,16.60
2019-05-14T20:57:50.852Z,16.60
2019-05-14T21:00:23.814Z,16.60
2019-05-14T21:02:59.237Z,16.60
2019-05-14T21:05:30.929Z,16.50
2019-05-14T21:08:03.581Z,16.40
2019-05-14T21:10:38.289Z,16.30
2019-05-14T21:13:10.299Z,16.40
2019-05-14T21:15:44.147Z,16.50
2019-05-14T21:18:18.939Z,16.50
2019-05-14T21:20:51.816Z,16.70
2019-05-14T21:23:24.528Z,16.80
2019-05-14T21:25:57.566Z,17.00
2019-05-14T21:28:30.222Z,17.10
2019-05-14T21:31:03.280Z,17.30
2019-05-14T21:33:36.372Z,17.50
2019-05-14T21:36:12.165Z,17.70
2019-05-14T21:38:43.380Z,17.90
2019-05-14T21:41:20.112Z,18.20
2019-05-14T21:43:50.037Z,18.40
2019-05-14T21:46:22.912Z,18.50
2019-05-14T21:48:55.602Z,18.70
2019-05-14T21:51:28.377Z,18.90
2019-05-14T21:54:02.157Z,19.00
2019-05-14T21:56:35.364Z,19.20
2019-05-14T21:59:09.501Z,19.30
2019-05-14T22:01:41.868Z,19.50
2019-05-14T22:04:14.465Z,19.70
2019-05-14T22:06:49.075Z,20.00
2019-05-14T22:09:21.129Z,20.20
2019-05-14T22:11:53.911Z,20.50
2019-05-14T22:14:28.345Z,20.70
2019-05-14T22:17:00.514Z,20.70
2019-05-14T22:19:33.342Z,20.90
2019-05-14T22:22:07.884Z,21.20
2019-05-14T22:24:40.065Z,21.40
2019-05-14T22:27:13.037Z,21.40
2019-05-14T22:29:45.497Z,21.50
2019-05-14T22:32:19.071Z,21.20
2019-05-14T22:34:51.997Z,20.70
2019-05-14T22:37:24.646Z,20.30
2019-05-14T22:39:59.004Z,19.90
2019-05-14T22:42:31.171Z,19.60
2019-05-14T22:45:04.724Z,19.60
2019-05-14T22:47:40.021Z,19.50
2019-05-14T22:50:11.695Z,19.50
2019-05-14T22:52:44.225Z,19.40
2019-05-14T22:55:17.021Z,19.20
2019-05-14T22:57:49.779Z,19.00
2019-05-14T23:00:22.522Z,18.90
2019-05-14T23:02:55.139Z,18.80
2019-05-14T23:05:29.124Z,19.10
2019-05-14T23:08:01.715Z,19.50
2019-05-14T23:10:34.462Z,19.80
2019-05-14T23:13:09.176Z,20.10
2019-05-14T23:15:40.872Z,20.50
2019-05-14T23:18:13.492Z,20.80
2019-05-14T23:20:49.025Z,20.80
2019-05-14T23:23:20.577Z,20.70
2019-05-14T23:25:53.953Z,20.70
2019-05-14T23:28:39.475Z,20.40
2019-05-14T23:31:00.643Z,20.20
2019-05-14T23:33:33.428Z,20.10
2019-05-14T23:36:08.335Z,20.00
2019-05-14T23:38:40.828Z,19.90
2019-05-14T23:41:14.744Z,19.90
2019-05-14T23:43:47.308Z,19.90
2019-05-14T23:46:20.305Z,19.90
2019-05-14T23:48:53.923Z,20.00
2019-05-14T23:51:28.841Z,20.20
2019-05-14T23:54:01.210Z,20.40
2019-05-14T23:56:33.762Z,20.50
2019-05-14T23:59:09.313Z,20.50
